sensor_id;sensor_type;location;lat;lon;timestamp;P1;durP1;ratioP1;P2;durP2;ratioP2
62941;SDS011;49042;47.318;19.874;2023-02-01T00:02:45;4.68;;;2.72;;
62941;SDS011;49042;47.318;19.874;2023-02-01T00:05:57;2.78;;;2.10;;
62941;SDS011;49042;47.318;19.874;2023-02-01T00:09:00;3.45;;;1.92;;
62941;SDS011;49042;47.318;19.874;2023-02-01T00:12:03;10.15;;;2.47;;
62941;SDS011;49042;47.318;19.874;2023-02-01T00:15:05;5.45;;;2.12;;
62941;SDS011;49042;47.318;19.874;2023-02-01T00:18:07;5.57;;;2.05;;
62941;SDS011;49042;47.318;19.874;2023-02-01T00:21:16;5.93;;;2.50;;
62941;SDS011;49042;47.318;19.874;2023-02-01T00:24:19;5.62;;;2.20;;
62941;SDS011;49042;47.318;19.874;2023-02-01T00:27:21;5.90;;;2.30;;
62941;SDS011;49042;47.318;19.874;2023-02-01T00:30:23;4.72;;;1.75;;
62941;SDS011;49042;47.318;19.874;2023-02-01T00:33:25;5.95;;;2.25;;
62941;SDS011;49042;47.318;19.874;2023-02-01T00:36:26;4.93;;;1.80;;
62941;SDS011;49042;47.318;19.874;2023-02-01T00:39:29;5.35;;;1.90;;
62941;SDS011;49042;47.318;19.874;2023-02-01T00:42:31;5.18;;;1.80;;
62941;SDS011;49042;47.318;19.874;2023-02-01T00:45:33;3.78;;;1.90;;
62941;SDS011;49042;47.318;19.874;2023-02-01T00:48:35;9.27;;;2.37;;
62941;SDS011;49042;47.318;19.874;2023-02-01T00:51:37;4.43;;;2.10;;
62941;SDS011;49042;47.318;19.874;2023-02-01T00:54:38;3.42;;;1.67;;
62941;SDS011;49042;47.318;19.874;2023-02-01T00:57:40;4.22;;;1.73;;
62941;SDS011;49042;47.318;19.874;2023-02-01T01:00:42;5.87;;;2.10;;
62941;SDS011;49042;47.318;19.874;2023-02-01T01:03:45;6.72;;;2.20;;
62941;SDS011;49042;47.318;19.874;2023-02-01T01:06:49;5.93;;;1.92;;
62941;SDS011;49042;47.318;19.874;2023-02-01T01:09:51;6.37;;;2.00;;
62941;SDS011;49042;47.318;19.874;2023-02-01T01:12:53;6.97;;;2.20;;
62941;SDS011;49042;47.318;19.874;2023-02-01T01:15:55;8.38;;;1.77;;
62941;SDS011;49042;47.318;19.874;2023-02-01T01:18:57;4.03;;;1.60;;
62941;SDS011;49042;47.318;19.874;2023-02-01T01:22:00;2.75;;;1.80;;
62941;SDS011;49042;47.318;19.874;2023-02-01T01:25:01;2.75;;;1.60;;
62941;SDS011;49042;47.318;19.874;2023-02-01T01:28:03;4.43;;;1.92;;
62941;SDS011;49042;47.318;19.874;2023-02-01T01:31:12;3.58;;;2.05;;
62941;SDS011;49042;47.318;19.874;2023-02-01T01:34:15;4.43;;;1.83;;
62941;SDS011;49042;47.318;19.874;2023-02-01T01:37:17;3.70;;;1.67;;
62941;SDS011;49042;47.318;19.874;2023-02-01T01:40:18;3.78;;;1.73;;
62941;SDS011;49042;47.318;19.874;2023-02-01T01:43:21;6.40;;;1.65;;
62941;SDS011;49042;47.318;19.874;2023-02-01T01:46:24;3.20;;;1.80;;
62941;SDS011;49042;47.318;19.874;2023-02-01T01:49:27;11.30;;;1.80;;
62941;SDS011;49042;47.318;19.874;2023-02-01T01:52:28;6.37;;;2.50;;
62941;SDS011;49042;47.318;19.874;2023-02-01T01:55:32;4.28;;;2.15;;
62941;SDS011;49042;47.318;19.874;2023-02-01T01:58:38;5.40;;;2.28;;
62941;SDS011;49042;47.318;19.874;2023-02-01T02:01:42;4.82;;;2.08;;
62941;SDS011;49042;47.318;19.874;2023-02-01T02:04:43;4.43;;;1.65;;
62941;SDS011;49042;47.318;19.874;2023-02-01T02:07:46;5.15;;;1.70;;
62941;SDS011;49042;47.318;19.874;2023-02-01T02:10:51;3.42;;;1.80;;
62941;SDS011;49042;47.318;19.874;2023-02-01T02:14:02;3.87;;;2.10;;
62941;SDS011;49042;47.318;19.874;2023-02-01T02:17:08;3.72;;;1.77;;
62941;SDS011;49042;47.318;19.874;2023-02-01T02:37:26;2.75;;;1.80;;
62941;SDS011;49042;47.318;19.874;2023-02-01T02:44:44;4.40;;;1.90;;
62941;SDS011;49042;47.318;19.874;2023-02-01T02:54:45;3.72;;;1.60;;
62941;SDS011;49042;47.318;19.874;2023-02-01T02:57:53;2.78;;;1.67;;
62941;SDS011;49042;47.318;19.874;2023-02-01T03:01:16;4.03;;;1.73;;
62941;SDS011;49042;47.318;19.874;2023-02-01T03:04:37;3.65;;;1.95;;
62941;SDS011;49042;47.318;19.874;2023-02-01T03:07:49;3.00;;;1.60;;
62941;SDS011;49042;47.318;19.874;2023-02-01T03:14:07;5.75;;;1.90;;
62941;SDS011;49042;47.318;19.874;2023-02-01T03:17:13;4.95;;;1.90;;
62941;SDS011;49042;47.318;19.874;2023-02-01T03:20:20;2.83;;;2.00;;
62941;SDS011;49042;47.318;19.874;2023-02-01T03:23:25;9.07;;;2.30;;
62941;SDS011;49042;47.318;19.874;2023-02-01T03:29:59;2.33;;;1.80;;
62941;SDS011;49042;47.318;19.874;2023-02-01T03:33:02;4.75;;;2.50;;
62941;SDS011;49042;47.318;19.874;2023-02-01T03:36:20;4.30;;;2.10;;
62941;SDS011;49042;47.318;19.874;2023-02-01T03:39:32;3.70;;;1.95;;
62941;SDS011;49042;47.318;19.874;2023-02-01T03:42:49;4.47;;;2.50;;
62941;SDS011;49042;47.318;19.874;2023-02-01T03:45:58;3.12;;;2.37;;
62941;SDS011;49042;47.318;19.874;2023-02-01T03:49:07;5.82;;;2.40;;
62941;SDS011;49042;47.318;19.874;2023-02-01T03:52:14;4.68;;;2.47;;
62941;SDS011;49042;47.318;19.874;2023-02-01T03:55:24;3.87;;;2.80;;
62941;SDS011;49042;47.318;19.874;2023-02-01T03:58:28;6.35;;;2.85;;
62941;SDS011;49042;47.318;19.874;2023-02-01T04:01:30;3.78;;;2.28;;
62941;SDS011;49042;47.318;19.874;2023-02-01T04:04:33;2.50;;;2.17;;
62941;SDS011;49042;47.318;19.874;2023-02-01T04:07:35;8.02;;;2.28;;
62941;SDS011;49042;47.318;19.874;2023-02-01T04:10:37;5.32;;;2.75;;
62941;SDS011;49042;47.318;19.874;2023-02-01T04:13:39;3.67;;;2.45;;
62941;SDS011;49042;47.318;19.874;2023-02-01T04:16:41;5.45;;;2.53;;
62941;SDS011;49042;47.318;19.874;2023-02-01T04:19:43;5.72;;;2.47;;
62941;SDS011;49042;47.318;19.874;2023-02-01T04:22:45;4.50;;;2.40;;
62941;SDS011;49042;47.318;19.874;2023-02-01T04:25:47;3.22;;;2.30;;
62941;SDS011;49042;47.318;19.874;2023-02-01T04:28:49;3.47;;;2.30;;
62941;SDS011;49042;47.318;19.874;2023-02-01T04:31:52;5.87;;;2.50;;
62941;SDS011;49042;47.318;19.874;2023-02-01T04:34:56;3.42;;;2.50;;
62941;SDS011;49042;47.318;19.874;2023-02-01T04:37:57;6.60;;;2.55;;
62941;SDS011;49042;47.318;19.874;2023-02-01T04:41:00;3.28;;;2.40;;
62941;SDS011;49042;47.318;19.874;2023-02-01T04:44:02;6.28;;;2.67;;
62941;SDS011;49042;47.318;19.874;2023-02-01T04:47:04;3.97;;;2.30;;
62941;SDS011;49042;47.318;19.874;2023-02-01T04:50:07;3.03;;;2.33;;
62941;SDS011;49042;47.318;19.874;2023-02-01T04:53:11;3.62;;;2.55;;
62941;SDS011;49042;47.318;19.874;2023-02-01T04:56:13;4.15;;;2.00;;
62941;SDS011;49042;47.318;19.874;2023-02-01T04:59:15;3.00;;;2.25;;
62941;SDS011;49042;47.318;19.874;2023-02-01T05:02:16;2.72;;;1.95;;
62941;SDS011;49042;47.318;19.874;2023-02-01T05:05:18;3.70;;;2.10;;
62941;SDS011;49042;47.318;19.874;2023-02-01T05:08:20;3.50;;;2.37;;
62941;SDS011;49042;47.318;19.874;2023-02-01T05:11:24;3.78;;;2.42;;
62941;SDS011;49042;47.318;19.874;2023-02-01T05:14:45;3.08;;;2.50;;
62941;SDS011;49042;47.318;19.874;2023-02-01T05:17:46;4.00;;;2.45;;
62941;SDS011;49042;47.318;19.874;2023-02-01T05:20:48;4.35;;;2.87;;
62941;SDS011;49042;47.318;19.874;2023-02-01T05:23:51;5.95;;;2.60;;
62941;SDS011;49042;47.318;19.874;2023-02-01T05:27:11;3.17;;;2.30;;
62941;SDS011;49042;47.318;19.874;2023-02-01T05:30:13;4.25;;;2.62;;
62941;SDS011;49042;47.318;19.874;2023-02-01T05:33:15;4.90;;;2.90;;
62941;SDS011;49042;47.318;19.874;2023-02-01T05:36:17;3.70;;;2.80;;
62941;SDS011;49042;47.318;19.874;2023-02-01T05:39:20;6.15;;;2.83;;
62941;SDS011;49042;47.318;19.874;2023-02-01T05:42:21;5.85;;;3.00;;
62941;SDS011;49042;47.318;19.874;2023-02-01T05:45:23;4.90;;;3.17;;
62941;SDS011;49042;47.318;19.874;2023-02-01T05:48:25;4.75;;;2.92;;
62941;SDS011;49042;47.318;19.874;2023-02-01T05:51:27;8.73;;;5.43;;
62941;SDS011;49042;47.318;19.874;2023-02-01T05:54:28;7.87;;;4.93;;
62941;SDS011;49042;47.318;19.874;2023-02-01T05:57:31;11.65;;;5.78;;
62941;SDS011;49042;47.318;19.874;2023-02-01T06:00:33;4.10;;;3.08;;
62941;SDS011;49042;47.318;19.874;2023-02-01T06:03:35;4.90;;;3.45;;
62941;SDS011;49042;47.318;19.874;2023-02-01T06:06:38;6.82;;;4.53;;
62941;SDS011;49042;47.318;19.874;2023-02-01T06:09:40;8.55;;;4.07;;
62941;SDS011;49042;47.318;19.874;2023-02-01T06:12:42;15.77;;;10.57;;
62941;SDS011;49042;47.318;19.874;2023-02-01T06:15:44;7.20;;;4.55;;
62941;SDS011;49042;47.318;19.874;2023-02-01T06:18:45;17.98;;;11.63;;
62941;SDS011;49042;47.318;19.874;2023-02-01T06:21:47;34.20;;;20.33;;
62941;SDS011;49042;47.318;19.874;2023-02-01T06:24:50;46.45;;;28.12;;
62941;SDS011;49042;47.318;19.874;2023-02-01T06:27:53;29.98;;;20.25;;
62941;SDS011;49042;47.318;19.874;2023-02-01T06:30:55;41.42;;;24.05;;
62941;SDS011;49042;47.318;19.874;2023-02-01T06:33:59;15.88;;;9.45;;
62941;SDS011;49042;47.318;19.874;2023-02-01T06:37:01;15.75;;;8.63;;
62941;SDS011;49042;47.318;19.874;2023-02-01T06:40:03;3.75;;;2.00;;
62941;SDS011;49042;47.318;19.874;2023-02-01T06:43:06;2.72;;;1.75;;
62941;SDS011;49042;47.318;19.874;2023-02-01T06:46:10;3.65;;;2.35;;
62941;SDS011;49042;47.318;19.874;2023-02-01T06:49:14;1.92;;;1.58;;
62941;SDS011;49042;47.318;19.874;2023-02-01T06:52:15;4.53;;;1.80;;
62941;SDS011;49042;47.318;19.874;2023-02-01T06:55:17;4.90;;;2.40;;
62941;SDS011;49042;47.318;19.874;2023-02-01T06:58:20;5.03;;;2.12;;
62941;SDS011;49042;47.318;19.874;2023-02-01T07:01:22;4.40;;;2.80;;
62941;SDS011;49042;47.318;19.874;2023-02-01T07:04:25;2.97;;;2.10;;
62941;SDS011;49042;47.318;19.874;2023-02-01T07:07:28;3.40;;;2.30;;
62941;SDS011;49042;47.318;19.874;2023-02-01T07:10:29;2.30;;;1.90;;
62941;SDS011;49042;47.318;19.874;2023-02-01T07:13:31;4.60;;;3.15;;
62941;SDS011;49042;47.318;19.874;2023-02-01T07:16:33;4.85;;;3.08;;
62941;SDS011;49042;47.318;19.874;2023-02-01T07:19:36;5.78;;;4.00;;
62941;SDS011;49042;47.318;19.874;2023-02-01T07:22:38;6.45;;;3.37;;
62941;SDS011;49042;47.318;19.874;2023-02-01T07:25:39;6.10;;;2.62;;
62941;SDS011;49042;47.318;19.874;2023-02-01T07:28:43;4.87;;;2.72;;
62941;SDS011;49042;47.318;19.874;2023-02-01T07:31:45;4.30;;;2.87;;
62941;SDS011;49042;47.318;19.874;2023-02-01T07:34:47;3.12;;;2.42;;
62941;SDS011;49042;47.318;19.874;2023-02-01T07:37:50;3.62;;;2.53;;
62941;SDS011;49042;47.318;19.874;2023-02-01T07:40:56;6.90;;;2.80;;
62941;SDS011;49042;47.318;19.874;2023-02-01T07:44:06;7.28;;;2.90;;
62941;SDS011;49042;47.318;19.874;2023-02-01T07:47:08;2.92;;;2.42;;
62941;SDS011;49042;47.318;19.874;2023-02-01T07:50:11;6.90;;;3.72;;
62941;SDS011;49042;47.318;19.874;2023-02-01T07:53:14;4.55;;;2.85;;
62941;SDS011;49042;47.318;19.874;2023-02-01T07:56:19;4.15;;;2.90;;
62941;SDS011;49042;47.318;19.874;2023-02-01T07:59:22;3.97;;;2.65;;
62941;SDS011;49042;47.318;19.874;2023-02-01T08:02:24;6.28;;;2.75;;
62941;SDS011;49042;47.318;19.874;2023-02-01T08:05:26;4.22;;;2.60;;
62941;SDS011;49042;47.318;19.874;2023-02-01T08:08:30;3.35;;;2.60;;
62941;SDS011;49042;47.318;19.874;2023-02-01T08:11:31;6.80;;;3.55;;
62941;SDS011;49042;47.318;19.874;2023-02-01T08:14:33;6.78;;;3.37;;
62941;SDS011;49042;47.318;19.874;2023-02-01T08:17:51;2.87;;;2.20;;
62941;SDS011;49042;47.318;19.874;2023-02-01T08:20:54;4.43;;;2.90;;
62941;SDS011;49042;47.318;19.874;2023-02-01T08:23:56;3.12;;;2.58;;
62941;SDS011;49042;47.318;19.874;2023-02-01T08:27:00;4.78;;;2.50;;
62941;SDS011;49042;47.318;19.874;2023-02-01T08:30:04;5.93;;;3.10;;
62941;SDS011;49042;47.318;19.874;2023-02-01T08:33:08;3.92;;;3.15;;
62941;SDS011;49042;47.318;19.874;2023-02-01T08:36:11;4.05;;;3.03;;
62941;SDS011;49042;47.318;19.874;2023-02-01T08:39:14;6.40;;;3.40;;
62941;SDS011;49042;47.318;19.874;2023-02-01T08:42:16;8.00;;;4.72;;
62941;SDS011;49042;47.318;19.874;2023-02-01T08:45:37;6.95;;;3.80;;
62941;SDS011;49042;47.318;19.874;2023-02-01T08:48:39;4.43;;;3.25;;
62941;SDS011;49042;47.318;19.874;2023-02-01T08:51:42;5.62;;;2.70;;
62941;SDS011;49042;47.318;19.874;2023-02-01T08:54:44;6.40;;;2.95;;
62941;SDS011;49042;47.318;19.874;2023-02-01T08:57:45;5.05;;;2.05;;
62941;SDS011;49042;47.318;19.874;2023-02-01T09:00:47;5.95;;;3.22;;
62941;SDS011;49042;47.318;19.874;2023-02-01T09:03:49;9.70;;;4.57;;
62941;SDS011;49042;47.318;19.874;2023-02-01T09:06:52;8.05;;;3.97;;
62941;SDS011;49042;47.318;19.874;2023-02-01T09:09:56;5.55;;;2.95;;
62941;SDS011;49042;47.318;19.874;2023-02-01T09:13:02;7.07;;;3.40;;
62941;SDS011;49042;47.318;19.874;2023-02-01T09:16:04;7.32;;;3.10;;
62941;SDS011;49042;47.318;19.874;2023-02-01T09:19:07;6.18;;;3.40;;
62941;SDS011;49042;47.318;19.874;2023-02-01T09:22:25;4.12;;;2.85;;
62941;SDS011;49042;47.318;19.874;2023-02-01T09:25:27;4.22;;;2.92;;
62941;SDS011;49042;47.318;19.874;2023-02-01T09:28:29;4.82;;;2.83;;
62941;SDS011;49042;47.318;19.874;2023-02-01T09:31:32;7.80;;;3.05;;
62941;SDS011;49042;47.318;19.874;2023-02-01T09:34:35;7.97;;;3.00;;
62941;SDS011;49042;47.318;19.874;2023-02-01T09:37:36;8.90;;;4.47;;
62941;SDS011;49042;47.318;19.874;2023-02-01T09:40:39;4.80;;;2.20;;
62941;SDS011;49042;47.318;19.874;2023-02-01T09:43:47;4.75;;;1.62;;
62941;SDS011;49042;47.318;19.874;2023-02-01T09:46:57;9.63;;;2.33;;
62941;SDS011;49042;47.318;19.874;2023-02-01T09:50:05;5.53;;;2.67;;
62941;SDS011;49042;47.318;19.874;2023-02-01T09:53:37;7.10;;;2.80;;
62941;SDS011;49042;47.318;19.874;2023-02-01T10:00:12;4.55;;;2.10;;
62941;SDS011;49042;47.318;19.874;2023-02-01T10:03:20;5.22;;;2.65;;
62941;SDS011;49042;47.318;19.874;2023-02-01T10:06:33;3.70;;;2.33;;
62941;SDS011;49042;47.318;19.874;2023-02-01T10:10:01;3.92;;;2.40;;
62941;SDS011;49042;47.318;19.874;2023-02-01T10:16:39;6.95;;;3.12;;
62941;SDS011;49042;47.318;19.874;2023-02-01T10:26:36;5.87;;;3.77;;
62941;SDS011;49042;47.318;19.874;2023-02-01T10:29:43;11.73;;;5.60;;
62941;SDS011;49042;47.318;19.874;2023-02-01T10:32:49;7.53;;;3.45;;
62941;SDS011;49042;47.318;19.874;2023-02-01T10:39:02;7.50;;;3.72;;
62941;SDS011;49042;47.318;19.874;2023-02-01T10:42:07;5.07;;;2.87;;
62941;SDS011;49042;47.318;19.874;2023-02-01T10:45:16;2.78;;;2.28;;
62941;SDS011;49042;47.318;19.874;2023-02-01T10:48:20;9.75;;;2.97;;
62941;SDS011;49042;47.318;19.874;2023-02-01T10:51:26;9.75;;;3.22;;
62941;SDS011;49042;47.318;19.874;2023-02-01T10:54:35;7.20;;;2.60;;
62941;SDS011;49042;47.318;19.874;2023-02-01T10:57:39;4.65;;;2.47;;
62941;SDS011;49042;47.318;19.874;2023-02-01T11:03:58;5.45;;;2.78;;
62941;SDS011;49042;47.318;19.874;2023-02-01T11:07:07;4.05;;;2.40;;
62941;SDS011;49042;47.318;19.874;2023-02-01T11:10:37;4.00;;;2.60;;
62941;SDS011;49042;47.318;19.874;2023-02-01T11:13:42;8.40;;;3.20;;
62941;SDS011;49042;47.318;19.874;2023-02-01T11:16:48;4.43;;;2.62;;
62941;SDS011;49042;47.318;19.874;2023-02-01T11:19:56;4.28;;;2.62;;
62941;SDS011;49042;47.318;19.874;2023-02-01T11:23:01;5.07;;;2.50;;
62941;SDS011;49042;47.318;19.874;2023-02-01T11:26:11;2.78;;;1.92;;
62941;SDS011;49042;47.318;19.874;2023-02-01T11:29:22;2.28;;;1.73;;
62941;SDS011;49042;47.318;19.874;2023-02-01T11:32:31;5.25;;;2.00;;
62941;SDS011;49042;47.318;19.874;2023-02-01T11:35:33;3.60;;;1.90;;
62941;SDS011;49042;47.318;19.874;2023-02-01T11:38:39;8.43;;;3.03;;
62941;SDS011;49042;47.318;19.874;2023-02-01T11:42:28;3.97;;;2.00;;
62941;SDS011;49042;47.318;19.874;2023-02-01T11:45:26;4.40;;;1.90;;
62941;SDS011;49042;47.318;19.874;2023-02-01T11:51:37;9.13;;;3.50;;
62941;SDS011;49042;47.318;19.874;2023-02-01T11:58:24;6.53;;;3.20;;
62941;SDS011;49042;47.318;19.874;2023-02-01T12:05:18;7.95;;;3.00;;
62941;SDS011;49042;47.318;19.874;2023-02-01T12:18:27;9.00;;;3.08;;
62941;SDS011;49042;47.318;19.874;2023-02-01T12:24:45;5.72;;;3.25;;
62941;SDS011;49042;47.318;19.874;2023-02-01T12:35:17;6.05;;;3.10;;
62941;SDS011;49042;47.318;19.874;2023-02-01T12:41:56;4.75;;;2.65;;
62941;SDS011;49042;47.318;19.874;2023-02-01T12:54:37;5.20;;;3.45;;
62941;SDS011;49042;47.318;19.874;2023-02-01T12:58:15;4.30;;;2.75;;
62941;SDS011;49042;47.318;19.874;2023-02-01T13:01:36;7.93;;;3.45;;
62941;SDS011;49042;47.318;19.874;2023-02-01T13:08:16;5.65;;;3.55;;
62941;SDS011;49042;47.318;19.874;2023-02-01T13:14:46;11.35;;;5.32;;
62941;SDS011;49042;47.318;19.874;2023-02-01T13:17:54;8.52;;;4.57;;
62941;SDS011;49042;47.318;19.874;2023-02-01T13:21:16;9.30;;;4.80;;
62941;SDS011;49042;47.318;19.874;2023-02-01T13:30:37;9.18;;;3.70;;
62941;SDS011;49042;47.318;19.874;2023-02-01T13:43:49;5.82;;;3.25;;
62941;SDS011;49042;47.318;19.874;2023-02-01T13:46:54;5.40;;;3.33;;
62941;SDS011;49042;47.318;19.874;2023-02-01T13:50:00;9.15;;;4.32;;
62941;SDS011;49042;47.318;19.874;2023-02-01T13:56:13;4.68;;;3.22;;
62941;SDS011;49042;47.318;19.874;2023-02-01T14:06:02;12.27;;;2.97;;
62941;SDS011;49042;47.318;19.874;2023-02-01T14:09:32;3.72;;;2.53;;
62941;SDS011;49042;47.318;19.874;2023-02-01T14:12:45;5.85;;;3.15;;
62941;SDS011;49042;47.318;19.874;2023-02-01T14:19:08;5.28;;;3.75;;
62941;SDS011;49042;47.318;19.874;2023-02-01T14:25:25;4.53;;;2.72;;
62941;SDS011;49042;47.318;19.874;2023-02-01T14:28:34;5.50;;;2.92;;
62941;SDS011;49042;47.318;19.874;2023-02-01T14:31:40;3.97;;;2.78;;
62941;SDS011;49042;47.318;19.874;2023-02-01T14:37:50;4.60;;;3.05;;
62941;SDS011;49042;47.318;19.874;2023-02-01T14:40:54;5.32;;;2.50;;
62941;SDS011;49042;47.318;19.874;2023-02-01T14:47:06;3.17;;;2.30;;
62941;SDS011;49042;47.318;19.874;2023-02-01T14:53:20;5.97;;;2.58;;
62941;SDS011;49042;47.318;19.874;2023-02-01T14:56:34;3.70;;;2.58;;
62941;SDS011;49042;47.318;19.874;2023-02-01T14:59:36;5.97;;;3.15;;
62941;SDS011;49042;47.318;19.874;2023-02-01T15:02:38;4.32;;;2.60;;
62941;SDS011;49042;47.318;19.874;2023-02-01T15:05:41;3.40;;;2.40;;
62941;SDS011;49042;47.318;19.874;2023-02-01T15:08:43;4.00;;;2.37;;
62941;SDS011;49042;47.318;19.874;2023-02-01T15:18:17;3.92;;;2.60;;
62941;SDS011;49042;47.318;19.874;2023-02-01T15:21:21;3.05;;;2.20;;
62941;SDS011;49042;47.318;19.874;2023-02-01T15:24:31;4.20;;;2.22;;
62941;SDS011;49042;47.318;19.874;2023-02-01T15:27:33;3.42;;;2.20;;
62941;SDS011;49042;47.318;19.874;2023-02-01T15:30:35;4.00;;;2.40;;
62941;SDS011;49042;47.318;19.874;2023-02-01T15:33:37;6.65;;;2.60;;
62941;SDS011;49042;47.318;19.874;2023-02-01T15:36:39;2.40;;;1.77;;
62941;SDS011;49042;47.318;19.874;2023-02-01T15:40:04;2.62;;;1.65;;
62941;SDS011;49042;47.318;19.874;2023-02-01T15:43:19;3.78;;;2.58;;
62941;SDS011;49042;47.318;19.874;2023-02-01T15:46:22;3.67;;;2.15;;
62941;SDS011;49042;47.318;19.874;2023-02-01T15:49:38;2.78;;;2.05;;
62941;SDS011;49042;47.318;19.874;2023-02-01T15:52:43;3.45;;;2.37;;
62941;SDS011;49042;47.318;19.874;2023-02-01T15:55:55;5.37;;;2.37;;
62941;SDS011;49042;47.318;19.874;2023-02-01T15:59:00;4.07;;;2.03;;
62941;SDS011;49042;47.318;19.874;2023-02-01T16:02:03;4.47;;;2.80;;
62941;SDS011;49042;47.318;19.874;2023-02-01T16:05:06;4.15;;;2.50;;
62941;SDS011;49042;47.318;19.874;2023-02-01T16:08:51;6.28;;;2.65;;
62941;SDS011;49042;47.318;19.874;2023-02-01T16:11:56;3.58;;;2.37;;
62941;SDS011;49042;47.318;19.874;2023-02-01T16:15:01;3.05;;;2.10;;
62941;SDS011;49042;47.318;19.874;2023-02-01T16:18:03;3.90;;;2.40;;
62941;SDS011;49042;47.318;19.874;2023-02-01T16:21:06;3.83;;;2.47;;
62941;SDS011;49042;47.318;19.874;2023-02-01T16:24:09;5.45;;;2.80;;
62941;SDS011;49042;47.318;19.874;2023-02-01T16:27:11;4.28;;;2.65;;
62941;SDS011;49042;47.318;19.874;2023-02-01T16:30:14;7.00;;;4.72;;
62941;SDS011;49042;47.318;19.874;2023-02-01T16:33:17;10.73;;;6.37;;
62941;SDS011;49042;47.318;19.874;2023-02-01T16:36:23;8.23;;;4.12;;
62941;SDS011;49042;47.318;19.874;2023-02-01T16:39:26;3.97;;;2.60;;
62941;SDS011;49042;47.318;19.874;2023-02-01T16:42:29;4.28;;;2.80;;
62941;SDS011;49042;47.318;19.874;2023-02-01T16:45:32;6.85;;;2.80;;
62941;SDS011;49042;47.318;19.874;2023-02-01T16:48:35;7.18;;;2.70;;
62941;SDS011;49042;47.318;19.874;2023-02-01T16:51:38;3.70;;;2.20;;
62941;SDS011;49042;47.318;19.874;2023-02-01T16:54:42;5.00;;;2.70;;
62941;SDS011;49042;47.318;19.874;2023-02-01T16:57:46;4.93;;;2.50;;
62941;SDS011;49042;47.318;19.874;2023-02-01T17:00:49;6.07;;;3.35;;
62941;SDS011;49042;47.318;19.874;2023-02-01T17:03:52;5.95;;;3.42;;
62941;SDS011;49042;47.318;19.874;2023-02-01T17:06:55;9.40;;;4.47;;
62941;SDS011;49042;47.318;19.874;2023-02-01T17:09:57;5.87;;;3.80;;
62941;SDS011;49042;47.318;19.874;2023-02-01T17:12:59;8.18;;;4.50;;
62941;SDS011;49042;47.318;19.874;2023-02-01T17:16:03;11.93;;;5.40;;
62941;SDS011;49042;47.318;19.874;2023-02-01T17:19:12;8.57;;;4.70;;
62941;SDS011;49042;47.318;19.874;2023-02-01T17:22:18;10.15;;;4.55;;
62941;SDS011;49042;47.318;19.874;2023-02-01T17:25:21;8.55;;;3.97;;
62941;SDS011;49042;47.318;19.874;2023-02-01T17:28:24;6.32;;;3.50;;
62941;SDS011;49042;47.318;19.874;2023-02-01T17:31:26;9.05;;;3.12;;
62941;SDS011;49042;47.318;19.874;2023-02-01T17:34:29;6.87;;;3.20;;
62941;SDS011;49042;47.318;19.874;2023-02-01T17:37:33;6.47;;;3.20;;
62941;SDS011;49042;47.318;19.874;2023-02-01T17:40:37;3.92;;;2.75;;
62941;SDS011;49042;47.318;19.874;2023-02-01T17:43:39;4.22;;;2.90;;
62941;SDS011;49042;47.318;19.874;2023-02-01T17:46:42;5.95;;;2.87;;
62941;SDS011;49042;47.318;19.874;2023-02-01T17:49:46;6.60;;;2.72;;
62941;SDS011;49042;47.318;19.874;2023-02-01T17:52:51;6.55;;;3.45;;
62941;SDS011;49042;47.318;19.874;2023-02-01T17:55:54;9.77;;;3.28;;
62941;SDS011;49042;47.318;19.874;2023-02-01T17:58:59;7.68;;;2.97;;
62941;SDS011;49042;47.318;19.874;2023-02-01T18:02:01;7.55;;;3.03;;
62941;SDS011;49042;47.318;19.874;2023-02-01T18:05:09;4.75;;;2.70;;
62941;SDS011;49042;47.318;19.874;2023-02-01T18:08:16;3.62;;;2.15;;
62941;SDS011;49042;47.318;19.874;2023-02-01T18:11:19;6.32;;;1.95;;
62941;SDS011;49042;47.318;19.874;2023-02-01T18:14:27;5.97;;;2.00;;
62941;SDS011;49042;47.318;19.874;2023-02-01T18:17:31;2.83;;;2.00;;
62941;SDS011;49042;47.318;19.874;2023-02-01T18:20:37;5.03;;;2.15;;
62941;SDS011;49042;47.318;19.874;2023-02-01T18:23:43;4.45;;;2.25;;
62941;SDS011;49042;47.318;19.874;2023-02-01T18:26:46;5.57;;;2.28;;
62941;SDS011;49042;47.318;19.874;2023-02-01T18:29:49;4.53;;;2.90;;
62941;SDS011;49042;47.318;19.874;2023-02-01T18:32:51;5.75;;;2.90;;
62941;SDS011;49042;47.318;19.874;2023-02-01T18:35:54;6.18;;;3.17;;
62941;SDS011;49042;47.318;19.874;2023-02-01T18:38:56;5.55;;;3.15;;
62941;SDS011;49042;47.318;19.874;2023-02-01T18:42:07;8.68;;;3.87;;
62941;SDS011;49042;47.318;19.874;2023-02-01T18:48:20;5.37;;;3.83;;
62941;SDS011;49042;47.318;19.874;2023-02-01T18:51:24;7.07;;;4.57;;
62941;SDS011;49042;47.318;19.874;2023-02-01T18:54:27;8.25;;;4.65;;
62941;SDS011;49042;47.318;19.874;2023-02-01T18:57:30;8.07;;;4.37;;
62941;SDS011;49042;47.318;19.874;2023-02-01T19:00:34;7.15;;;5.03;;
62941;SDS011;49042;47.318;19.874;2023-02-01T19:03:38;7.07;;;4.80;;
62941;SDS011;49042;47.318;19.874;2023-02-01T19:06:47;9.80;;;5.12;;
62941;SDS011;49042;47.318;19.874;2023-02-01T19:09:50;10.55;;;5.28;;
62941;SDS011;49042;47.318;19.874;2023-02-01T19:12:53;9.95;;;5.65;;
62941;SDS011;49042;47.318;19.874;2023-02-01T19:15:58;8.52;;;5.57;;
62941;SDS011;49042;47.318;19.874;2023-02-01T19:19:02;9.73;;;6.00;;
62941;SDS011;49042;47.318;19.874;2023-02-01T19:22:05;10.85;;;5.95;;
62941;SDS011;49042;47.318;19.874;2023-02-01T19:25:09;7.45;;;5.55;;
62941;SDS011;49042;47.318;19.874;2023-02-01T19:28:20;9.73;;;5.87;;
62941;SDS011;49042;47.318;19.874;2023-02-01T19:31:22;8.60;;;5.50;;
62941;SDS011;49042;47.318;19.874;2023-02-01T19:34:25;10.95;;;6.53;;
62941;SDS011;49042;47.318;19.874;2023-02-01T19:37:32;11.10;;;6.28;;
62941;SDS011;49042;47.318;19.874;2023-02-01T19:40:35;12.82;;;6.50;;
62941;SDS011;49042;47.318;19.874;2023-02-01T19:43:38;10.38;;;5.70;;
62941;SDS011;49042;47.318;19.874;2023-02-01T19:46:42;11.60;;;5.62;;
62941;SDS011;49042;47.318;19.874;2023-02-01T19:49:45;8.80;;;5.53;;
62941;SDS011;49042;47.318;19.874;2023-02-01T19:52:50;10.88;;;4.78;;
62941;SDS011;49042;47.318;19.874;2023-02-01T19:55:53;8.55;;;5.45;;
62941;SDS011;49042;47.318;19.874;2023-02-01T20:02:12;11.30;;;5.93;;
62941;SDS011;49042;47.318;19.874;2023-02-01T20:05:35;12.00;;;5.25;;
62941;SDS011;49042;47.318;19.874;2023-02-01T20:08:38;9.23;;;5.75;;
62941;SDS011;49042;47.318;19.874;2023-02-01T20:11:41;6.80;;;4.72;;
62941;SDS011;49042;47.318;19.874;2023-02-01T20:14:46;6.93;;;4.30;;
62941;SDS011;49042;47.318;19.874;2023-02-01T20:17:50;5.85;;;3.45;;
62941;SDS011;49042;47.318;19.874;2023-02-01T20:20:58;6.45;;;3.42;;
62941;SDS011;49042;47.318;19.874;2023-02-01T20:24:06;5.37;;;3.15;;
62941;SDS011;49042;47.318;19.874;2023-02-01T20:27:10;3.95;;;2.72;;
62941;SDS011;49042;47.318;19.874;2023-02-01T20:30:15;6.28;;;3.10;;
62941;SDS011;49042;47.318;19.874;2023-02-01T20:33:20;3.97;;;2.78;;
62941;SDS011;49042;47.318;19.874;2023-02-01T20:36:25;3.90;;;2.90;;
62941;SDS011;49042;47.318;19.874;2023-02-01T20:39:31;3.97;;;2.25;;
62941;SDS011;49042;47.318;19.874;2023-02-01T20:42:35;6.07;;;2.70;;
62941;SDS011;49042;47.318;19.874;2023-02-01T20:45:40;4.85;;;2.80;;
62941;SDS011;49042;47.318;19.874;2023-02-01T20:48:45;3.80;;;2.72;;
62941;SDS011;49042;47.318;19.874;2023-02-01T20:51:50;4.00;;;2.40;;
62941;SDS011;49042;47.318;19.874;2023-02-01T20:54:53;2.67;;;2.22;;
62941;SDS011;49042;47.318;19.874;2023-02-01T20:57:56;4.05;;;2.53;;
62941;SDS011;49042;47.318;19.874;2023-02-01T21:00:59;3.58;;;2.35;;